Latest Weather Observations for Melbourne Airport

IDV60901

Issued at 6:51 am EST Tuesday 7 July 2020 (issued every 10 minutes, with the page automatically refreshed every 10 minutes)

About weather observations | Map of Melbourne area stations | Latest observations for Melbourne area | Other Formats
Station Details ID: 086282 Name: MELBOURNE AIRPORT Lat: -37.67 Lon: 144.83 Height: 113.4 m
Data from the previous 72 hours. | See also: Recent months at Melbourne Airport
Date/Time
EST
Temp
°C
App
Temp
°C
Dew
Point
°C
Rel
Hum
%
Delta-T
°C
Wind Press
QNH
hPa
Press
MSL
hPa
Rain since
9am
mm
Dir  Spd
km/h
Gust
km/h
Spd
kts
Gust
kts
07/06:30am 8.2 6.0 7.8 97 0.2 WSW 9 11 5 6 1031.7 1031.9 0.0
07/06:00am 8.1 6.3 7.9 99 0.1 W 7 9 4 5 1031.6 1031.8 0.0
07/05:30am 8.1 6.3 7.9 99 0.1 WSW 7 9 4 5 1031.4 1031.6 0.0
07/05:16am 8.2 5.6 7.8 97 0.2 WSW 11 13 6 7 1031.3 1031.5 0.0
07/05:00am 8.3 5.6 7.4 94 0.4 W 11 13 6 7 1031.3 1031.5 0.0
07/04:30am 8.3 5.2 7.2 93 0.5 WSW 13 15 7 8 1031.5 1031.7 0.0
07/04:00am 8.3 4.8 7.2 93 0.5 W 15 19 8 10 1031.6 1031.8 0.0
07/03:30am 8.3 4.8 7.2 93 0.5 W 15 19 8 10 1031.8 1032.0 0.0
07/03:00am 8.4 6.2 7.8 96 0.3 WSW 9 13 5 7 1031.9 1032.1 0.0
07/02:42am 8.6 6.5 8.2 97 0.2 WSW 9 11 5 6 1031.8 1032.0 0.0
07/02:30am 8.6 5.7 8.2 97 0.2 WSW 13 15 7 8 1031.9 1032.1 0.0
07/02:00am 8.8 6.3 8.4 97 0.2 SW 11 15 6 8 1032.0 1032.2 0.0
07/01:30am 8.8 6.7 8.2 96 0.3 SSW 9 11 5 6 1032.0 1032.2 0.0
07/01:00am 8.3 6.5 8.1 99 0.1 WSW 7 7 4 4 1032.0 1032.2 0.0
07/12:30am 9.0 6.9 8.4 96 0.3 W 9 11 5 6 1031.8 1032.0 0.0
07/12:00am 9.7 6.9 8.7 93 0.5 SW 13 15 7 8 1031.9 1032.1 0.0
 
Date/Time
EST
Temp
°C
App
Temp
°C
Dew
Point
°C
Rel
Hum
%
Delta-T
°C
Wind Press
QNH
hPa
Press
MSL
hPa
Rain since
9am
mm
Dir  Spd
km/h
Gust
km/h
Spd
kts
Gust
kts
06/11:30pm 9.7 7.7 8.5 92 0.6 SW 9 13 5 7 1032.2 1032.4 0.0
06/11:00pm 9.9 7.5 8.5 91 0.7 SW 11 19 6 10 1032.1 1032.3 0.0
06/10:30pm 9.9 7.9 8.5 91 0.7 SW 9 11 5 6 1031.9 1032.1 0.0
06/10:00pm 10.1 7.7 8.5 90 0.8 WSW 11 13 6 7 1031.8 1032.0 0.0
06/09:30pm 9.9 9.6 8.7 92 0.6 CALM 0 0 0 0 1031.8 1032.0 0.0
06/09:00pm 9.9 9.6 8.5 91 0.7 CALM 0 0 0 0 1031.9 1032.1 0.0
06/08:30pm 10.1 9.8 8.5 90 0.8 CALM 0 0 0 0 1032.2 1032.4 0.0
06/08:00pm 10.3 8.6 8.5 89 0.9 S 7 9 4 5 1032.2 1032.4 0.0
06/07:30pm 10.5 8.5 8.5 87 1.0 SSW 9 11 5 6 1032.1 1032.3 0.0
06/07:00pm 10.7 8.5 8.0 83 1.3 SSW 9 11 5 6 1031.8 1032.0 0.0
06/06:30pm 10.8 8.6 7.9 82 1.4 SW 9 11 5 6 1031.5 1031.7 0.0
06/06:00pm 10.8 8.5 7.5 80 1.6 SSW 9 11 5 6 1031.2 1031.4 0.0
06/05:30pm 11.1 8.4 7.3 77 1.8 SSW 11 17 6 9 1031.0 1031.2 0.0
06/05:00pm 11.6 8.4 6.8 72 2.3 SSW 13 19 7 10 1030.9 1031.1 0.0
06/04:30pm 11.9 9.1 6.9 71 2.4 S 11 15 6 8 1030.7 1030.9 0.0
06/04:00pm 12.1 9.0 7.1 71 2.4 SSW 13 17 7 9 1030.6 1030.8 0.0
06/03:30pm 12.1 8.9 6.9 70 2.5 SSW 13 17 7 9 1030.5 1030.7 0.0
06/03:00pm 11.8 7.4 7.2 73 2.2 SW 20 28 11 15 1030.5 1030.7 0.0
06/02:30pm 12.1 7.9 7.6 74 2.2 SW 19 26 10 14 1030.3 1030.5 0.0
06/02:00pm 12.6 9.1 7.0 68 2.7 SSW 15 20 8 11 1030.4 1030.6 0.0
06/01:30pm 12.9 9.0 7.3 69 2.7 SSW 17 26 9 14 1030.6 1030.8 0.0
06/01:00pm 12.3 8.1 7.3 71 2.4 SSW 19 26 10 14 1030.8 1031.0 0.0
06/12:30pm 12.3 7.2 7.6 73 2.3 SW 24 32 13 17 1031.0 1031.2 0.0
06/12:00pm 11.7 6.6 7.6 76 2.0 SW 24 32 13 17 1031.4 1031.6 0.0
06/11:30am 11.8 8.7 8.8 82 1.5 SSW 15 19 8 10 1031.7 1031.9 0.0
06/11:00am 11.1 7.5 8.4 83 1.3 SW 17 20 9 11 1031.9 1032.1 0.0
06/10:30am 10.7 7.9 8.4 86 1.1 SW 13 17 7 9 1032.0 1032.2 0.0
06/10:00am 10.2 7.2 7.9 86 1.1 WSW 13 17 7 9 1031.9 1032.1 0.0
06/09:30am 9.4 7.1 7.5 88 0.9 WSW 9 11 5 6 1031.7 1031.9 0.0
06/09:00am 8.9 6.5 7.0 88 0.9 W 9 13 5 7 1031.6 1031.8 1.6
06/08:30am 8.4 5.6 6.9 90 0.7 WNW 11 15 6 8 1031.4 1031.6 1.6
06/08:00am 7.4 4.0 6.1 91 0.6 W 13 15 7 8 1031.1 1031.3 1.6
06/07:30am 7.5 5.0 6.6 94 0.4 W 9 9 5 5 1030.8 1031.0 1.6
06/07:00am 7.2 4.3 6.3 94 0.4 WNW 11 13 6 7 1030.7 1030.9 1.6
06/06:30am 6.5 5.2 5.8 95 0.3 WNW 2 7 1 4 1030.4 1030.6 1.6
06/06:00am 5.5 2.7 5.0 97 0.2 WNW 9 11 5 6 1030.0 1030.2 1.6
06/05:30am 5.4 2.2 4.9 97 0.2 WNW 11 13 6 7 1029.7 1029.9 1.6
06/05:00am 5.6 2.4 5.1 97 0.2 WNW 11 15 6 8 1029.5 1029.7 1.6
06/04:30am 6.5 3.1 6.1 97 0.2 W 13 15 7 8 1029.5 1029.7 1.6
06/04:00am 7.7 4.6 7.1 96 0.3 W 13 15 7 8 1029.4 1029.6 1.6
06/03:30am 8.4 4.9 7.3 93 0.5 SW 15 22 8 12 1029.8 1030.0 1.6
06/03:16am 8.4 5.6 6.9 90 0.7 WSW 11 15 6 8 1029.8 1030.0 1.6
06/03:00am 8.4 6.0 6.9 90 0.7 WSW 9 13 5 7 1029.8 1030.0 1.6
06/02:30am 8.3 6.2 6.8 90 0.7 WSW 7 11 4 6 1029.8 1030.0 1.6
06/02:00am 8.1 6.3 7.0 93 0.5 W 6 7 3 4 1029.6 1029.8 1.6
06/01:30am 7.9 5.5 7.0 94 0.4 W 9 11 5 6 1029.4 1029.6 1.6
06/01:00am 7.9 5.5 7.0 94 0.4 WSW 9 11 5 6 1029.5 1029.7 1.6
06/12:30am 7.9 5.5 7.0 94 0.4 WSW 9 11 5 6 1029.6 1029.8 1.6
06/12:00am 7.9 5.1 7.0 94 0.4 W 11 13 6 7 1029.6 1029.8 1.6
 
Date/Time
EST
Temp
°C
App
Temp
°C
Dew
Point
°C
Rel
Hum
%
Delta-T
°C
Wind Press
QNH
hPa
Press
MSL
hPa
Rain since
9am
mm
Dir  Spd
km/h
Gust
km/h
Spd
kts
Gust
kts
05/11:30pm 8.2 4.7 7.1 93 0.5 WSW 15 19 8 10 1029.6 1029.8 1.6
05/11:00pm 8.5 5.0 7.2 91 0.6 SW 15 19 8 10 1029.5 1029.7 1.6
05/10:30pm 9.1 6.1 7.8 92 0.6 WSW 13 19 7 10 1029.5 1029.7 1.6
05/10:00pm 9.3 6.4 8.0 92 0.6 WSW 13 17 7 9 1029.4 1029.6 1.6
05/09:30pm 9.5 6.7 8.5 93 0.5 WSW 13 17 7 9 1029.2 1029.4 1.6
05/09:00pm 9.5 6.1 9.1 97 0.2 WSW 17 26 9 14 1029.0 1029.2 1.6
05/08:30pm 9.8 6.8 9.4 97 0.2 WSW 15 19 8 10 1028.8 1029.0 1.6
05/08:00pm 9.8 8.1 9.8 100 0.0 SW 9 9 5 5 1028.6 1028.8 1.0
05/07:30pm 9.8 8.0 9.6 99 0.1 SSW 9 13 5 7 1028.4 1028.6 0.8
05/07:25pm 9.9 8.1 9.5 97 0.2 SSW 9 13 5 7 1028.3 1028.5 0.8
05/07:00pm 9.8 8.4 9.6 99 0.1 SSW 7 11 4 6 1028.2 1028.4 0.6
05/06:45pm 9.8 8.6 9.4 97 0.2 S 6 9 3 5 1028.1 1028.3 0.2
05/06:30pm 10.1 8.2 9.1 93 0.5 S 9 9 5 5 1027.9 1028.1 0.2
05/06:21pm 10.2 7.9 9.0 92 0.6 S 11 13 6 7 1027.7 1027.9 0.2
05/06:12pm 10.4 8.0 8.6 89 0.9 S 11 15 6 8 1027.6 1027.8 0.2
05/06:00pm 10.4 8.4 8.6 89 0.9 S 9 13 5 7 1027.5 1027.7 0.2
05/05:44pm 10.5 8.5 8.7 89 0.9 S 9 11 5 6 1027.3 1027.5 0.2
05/05:30pm 10.6 8.1 8.3 86 1.1 SSW 11 13 6 7 1027.2 1027.4 0.2
05/05:00pm 11.0 8.0 7.9 81 1.5 S 13 17 7 9 1027.1 1027.3 0.2
05/04:30pm 11.2 7.8 7.7 79 1.7 S 15 19 8 10 1027.0 1027.2 0.2
05/04:00pm 11.6 7.8 7.5 76 2.0 SSW 17 24 9 13 1027.0 1027.2 0.2
05/03:30pm 11.7 7.8 7.3 74 2.1 S 17 22 9 12 1027.0 1027.2 0.2
05/03:00pm 11.7 8.3 7.6 76 2.0 SSW 15 22 8 12 1027.0 1027.2 0.2
05/02:30pm 11.4 8.2 8.6 83 1.4 S 15 19 8 10 1026.8 1027.1 0.2
05/02:00pm 11.0 8.3 9.0 87 1.0 S 13 17 7 9 1026.8 1027.1 0.2
05/01:50pm 10.9 7.4 8.9 87 1.0 S 17 24 9 13 1026.8 1027.1 0.2
05/01:30pm 11.9 7.9 8.9 82 1.5 SW 20 30 11 16 1026.8 1027.1 0.2
05/01:00pm 10.9 6.4 8.5 85 1.2 SW 22 30 12 16 1027.1 1027.3 0.2
05/12:48pm 11.0 7.6 9.2 89 0.9 SW 17 26 9 14 1027.2 1027.4 0.2
05/12:41pm 10.8 7.6 9.8 93 0.5 SW 17 22 9 12 1027.2 1027.4 0.2
05/12:30pm 10.2 5.6 9.6 96 0.3 SW 24 32 13 17 1027.3 1027.5 0.0
05/12:25pm 10.2 5.1 9.2 93 0.5 SW 26 32 14 17 1027.4 1027.6 0.0
05/12:21pm 10.3 - 9.1 92 0.6 - - - - - 1027.2 1027.5 -
05/12:11pm 10.6 6.6 9.0 90 0.8 SW 20 30 11 16 1027.4 1027.6 0.0
05/12:07pm 11.0 6.2 9.0 87 1.0 SW 24 32 13 17 1027.3 1027.5 0.0
05/12:00pm 11.2 6.0 8.8 85 1.2 SW 26 32 14 17 1027.4 1027.6 0.0
05/11:57am 11.1 5.9 8.9 86 1.1 SW 26 32 14 17 1027.4 1027.6 0.0
05/11:30am 11.1 6.8 8.0 81 1.5 SW 20 28 11 15 1027.7 1027.9 0.0
05/11:03am 10.9 7.2 7.8 81 1.5 SW 17 22 9 12 1028.0 1028.2 0.0
05/11:00am 10.8 7.1 7.9 82 1.4 SW 17 24 9 13 1028.0 1028.2 0.0
05/10:47am 10.3 4.9 7.8 84 1.2 WSW 26 35 14 19 1028.1 1028.3 0.0
05/10:30am 10.9 7.1 7.6 80 1.6 WSW 17 28 9 15 1027.9 1028.1 0.0
05/10:00am 10.4 5.9 7.0 79 1.6 WSW 20 28 11 15 1027.7 1027.9 0.0
05/09:30am 9.6 5.2 6.4 80 1.5 W 19 26 10 14 1027.4 1027.6 0.0
05/09:00am 8.9 4.9 6.8 87 1.0 W 17 20 9 11 1027.1 1027.3 0.4
05/08:30am 8.3 5.1 7.0 91 0.6 W 13 17 7 9 1026.8 1027.1 0.4
05/08:00am 8.4 4.5 7.1 91 0.6 W 17 22 9 12 1026.7 1027.0 0.4
05/07:30am 8.5 4.2 7.2 91 0.6 W 19 24 10 13 1026.5 1026.8 0.4
05/07:00am 8.7 3.9 7.4 91 0.6 WSW 22 32 12 17 1026.2 1026.5 0.4
05/06:30am 8.8 4.6 7.5 91 0.6 W 19 26 10 14 1025.8 1026.1 0.4
05/06:00am 8.8 5.0 7.5 91 0.6 WSW 17 20 9 11 1025.6 1025.9 0.4
05/05:42am 8.8 5.4 7.5 91 0.6 W 15 22 8 12 1025.5 1025.8 0.4
05/05:30am 8.6 5.6 7.5 93 0.5 W 13 17 7 9 1025.3 1025.6 0.4
05/05:00am 8.9 5.1 7.6 91 0.6 W 17 20 9 11 1025.1 1025.3 0.4
05/04:30am 8.1 4.3 7.5 96 0.3 W 17 19 9 10 1024.9 1025.1 0.4
05/04:27am 8.1 4.7 7.7 97 0.2 W 15 19 8 10 1024.9 1025.1 0.4
05/04:00am 8.8 4.6 8.4 97 0.2 W 20 28 11 15 1025.1 1025.3 0.4
05/03:54am 8.9 4.3 8.3 96 0.3 WSW 22 30 12 16 1025.2 1025.4 0.4
05/03:30am 9.3 4.9 7.6 89 0.8 W 20 26 11 14 1025.3 1025.6 0.4
05/03:00am 8.6 4.8 7.5 93 0.5 W 17 20 9 11 1025.4 1025.7 0.4
05/02:30am 8.2 3.9 7.1 93 0.5 W 19 22 10 12 1025.4 1025.7 0.4
05/02:00am 8.7 4.4 7.0 89 0.8 W 19 26 10 14 1025.2 1025.4 0.4
05/01:30am 9.1 4.8 7.2 88 0.9 W 19 22 10 12 1025.2 1025.4 0.4
05/01:00am 10.0 5.3 7.7 86 1.1 WSW 22 30 12 16 1025.3 1025.6 0.4
05/12:30am 10.1 5.1 8.0 87 1.0 WSW 24 32 13 17 1025.4 1025.7 0.4
05/12:00am 10.1 5.6 8.5 90 0.8 WSW 22 32 12 17 1025.5 1025.8 0.4
 
Date/Time
EST
Temp
°C
App
Temp
°C
Dew
Point
°C
Rel
Hum
%
Delta-T
°C
Wind Press
QNH
hPa
Press
MSL
hPa
Rain since
9am
mm
Dir  Spd
km/h
Gust
km/h
Spd
kts
Gust
kts
04/11:30pm 10.0 5.9 8.6 91 0.7 WSW 20 28 11 15 1025.5 1025.8 0.4
04/11:13pm 9.8 5.6 8.4 91 0.7 WSW 20 28 11 15 1025.4 1025.7 0.4
04/11:00pm 10.2 6.1 8.6 90 0.8 WSW 20 30 11 16 1025.3 1025.6 0.4
04/10:30pm 10.6 5.8 9.0 90 0.8 WSW 24 32 13 17 1025.1 1025.3 0.4
04/10:00pm 10.6 5.9 9.2 91 0.7 WSW 24 37 13 20 1025.0 1025.2 0.4
04/09:30pm 10.5 7.0 8.9 90 0.8 W 17 22 9 12 1024.9 1025.1 0.4
04/09:03pm 10.4 6.9 8.8 90 0.8 W 17 20 9 11 1024.7 1024.9 0.4
04/09:00pm 10.4 6.9 8.8 90 0.8 W 17 20 9 11 1024.7 1024.9 0.4
04/08:30pm 10.5 6.7 8.9 90 0.8 WSW 19 24 10 13 1024.7 1024.9 0.2
04/08:00pm 10.5 6.0 8.7 89 0.9 WSW 22 28 12 15 1024.6 1024.8 0.2
04/07:30pm 10.7 6.7 8.9 89 0.9 WSW 20 28 11 15 1024.4 1024.6 0.2
04/07:00pm 10.7 6.4 9.3 91 0.7 WSW 22 33 12 18 1024.4 1024.6 0.2
04/06:51pm 10.9 7.0 9.3 90 0.8 WSW 20 28 11 15 1024.3 1024.5 0.2
04/06:30pm 10.9 7.2 9.3 90 0.8 W 19 24 10 13 1024.1 1024.3 0.2
04/06:00pm 11.0 5.9 9.2 89 0.9 W 26 32 14 17 1024.0 1024.2 0.2
04/05:37pm 10.7 6.8 9.5 92 0.6 WSW 20 28 11 15 1023.8 1024.0 0.2
04/05:30pm 10.7 6.4 9.5 92 0.6 SW 22 30 12 16 1023.8 1024.0 0.2
04/05:11pm 11.0 7.6 9.2 89 0.9 WSW 17 30 9 16 1023.6 1023.8 0.2
04/05:00pm 10.8 6.1 9.4 91 0.7 WSW 24 33 13 18 1023.6 1023.8 0.2
04/04:55pm 11.2 6.8 9.0 86 1.1 WSW 22 33 12 18 1023.6 1023.8 0.2
04/04:30pm 12.0 7.8 8.1 77 1.9 WSW 20 30 11 16 1023.4 1023.6 0.0
04/04:00pm 12.2 6.3 7.7 74 2.2 WSW 28 39 15 21 1023.3 1023.5 0.0
04/03:30pm 12.4 8.2 8.1 75 2.1 WSW 20 28 11 15 1022.9 1023.1 0.0
04/03:00pm 12.1 9.3 8.5 78 1.8 W 13 19 7 10 1023.0 1023.2 0.0
04/02:50pm 12.2 9.4 8.6 78 1.8 W 13 19 7 10 1022.9 1023.1 0.0
04/02:30pm 12.3 8.7 8.5 77 1.9 W 17 22 9 12 1022.8 1023.0 0.0
04/02:00pm 13.1 8.5 8.1 71 2.5 W 22 32 12 17 1022.8 1023.0 0.0
04/01:30pm 12.2 7.4 7.5 73 2.3 W 22 30 12 16 1023.4 1023.6 0.0
04/01:00pm 12.4 6.2 7.9 74 2.2 WSW 30 37 16 20 1023.8 1024.0 0.0
04/12:30pm 12.2 6.0 7.9 75 2.1 WSW 30 37 16 20 1023.9 1024.1 0.0
04/12:00pm 11.7 5.6 8.2 79 1.7 WSW 30 37 16 20 1024.3 1024.5 0.0
04/11:30am 11.4 7.4 8.4 82 1.5 W 19 26 10 14 1024.3 1024.5 0.0
04/11:00am 11.6 7.4 8.1 79 1.7 W 20 28 11 15 1024.2 1024.4 0.0
04/10:30am 10.4 6.0 7.5 82 1.4 W 20 28 11 15 1024.4 1024.6 0.0
04/10:00am 9.9 5.6 7.2 83 1.3 WNW 19 28 10 15 1024.4 1024.6 0.0
04/09:30am 9.4 5.5 7.3 87 1.0 WNW 17 24 9 13 1024.0 1024.2 0.0
04/09:00am 8.4 4.7 6.4 87 0.9 WNW 15 22 8 12 1024.0 1024.2 5.8
04/08:30am 8.0 3.9 6.0 87 0.9 WNW 17 22 9 12 1024.0 1024.2 5.8
04/08:00am 7.7 3.5 5.7 87 0.9 WNW 17 24 9 13 1024.1 1024.3 5.8
04/07:30am 7.2 2.9 5.2 87 0.9 W 17 20 9 11 1023.8 1024.0 5.8
04/07:00am 6.9 2.6 5.1 88 0.8 WNW 17 22 9 12 1023.6 1023.8 5.8

Latest Capital City Observations: Canberra | Sydney | Melbourne | Brisbane | Adelaide | Perth | Hobart | Darwin

Other formats

Comma delimited format used in spreadsheet applications
http://www.bom.gov.au/fwo/IDV60901/IDV60901.94866.axf

JavaScript Object Notation format (JSON) in row-major order
http://www.bom.gov.au/fwo/IDV60901/IDV60901.94866.json

Data quality

Most of these data are generated automatically and are frequently updated. Quality checks on data are not normally performed. It is possible for incorrect values to appear. Refer to information at About Latest Weather Observations and please check the disclaimer before using these data.